createdAt,value
2023-05-12T00:00:19.118Z,12.40
2023-05-12T00:01:18.890Z,12.38
2023-05-12T00:02:18.894Z,12.37
2023-05-12T00:03:19.012Z,12.40
2023-05-12T00:04:18.879Z,12.40
2023-05-12T00:05:18.838Z,12.37
2023-05-12T00:06:18.846Z,12.37
2023-05-12T00:07:18.823Z,12.34
2023-05-12T00:08:18.798Z,12.37
2023-05-12T00:09:18.803Z,12.36
2023-05-12T00:10:19.116Z,12.37
2023-05-12T00:11:18.760Z,12.37
2023-05-12T00:12:18.746Z,12.40
2023-05-12T00:13:18.818Z,12.40
2023-05-12T00:14:18.732Z,12.40
2023-05-12T00:15:18.735Z,12.41
2023-05-12T00:16:18.807Z,12.36
2023-05-12T00:17:18.723Z,12.40
2023-05-12T00:18:18.742Z,12.40
2023-05-12T00:19:18.737Z,12.38
2023-05-12T00:20:18.972Z,12.37
2023-05-12T00:21:18.681Z,12.38
2023-05-12T00:22:18.641Z,12.37
2023-05-12T00:23:18.653Z,12.36
2023-05-12T00:24:18.624Z,12.36
2023-05-12T00:25:18.615Z,12.36
2023-05-12T00:26:18.595Z,12.38
2023-05-12T00:27:18.618Z,12.37
2023-05-12T00:28:18.694Z,12.34
2023-05-12T00:29:18.569Z,12.36
2023-05-12T00:30:18.908Z,12.31
2023-05-12T00:31:18.591Z,12.34
2023-05-12T00:32:18.570Z,12.30
2023-05-12T00:33:18.554Z,12.31
2023-05-12T00:34:18.531Z,12.31
2023-05-12T00:35:18.537Z,12.33
2023-05-12T00:36:18.511Z,12.34
2023-05-12T00:37:18.505Z,12.33
2023-05-12T00:38:18.473Z,12.31
2023-05-12T00:39:18.476Z,12.30
2023-05-12T00:40:18.662Z,12.33
2023-05-12T00:41:18.453Z,12.31
2023-05-12T00:42:18.434Z,12.34
2023-05-12T00:43:18.424Z,12.36
2023-05-12T00:44:18.420Z,12.31
2023-05-12T00:45:18.406Z,12.34
2023-05-12T00:46:18.404Z,12.36
2023-05-12T00:47:18.385Z,12.33
2023-05-12T00:48:18.383Z,12.33
2023-05-12T00:49:18.360Z,12.33
2023-05-12T00:50:18.571Z,12.34
2023-05-12T00:51:18.350Z,12.34
2023-05-12T00:52:18.350Z,12.34
2023-05-12T00:53:18.331Z,12.36
2023-05-12T00:54:18.311Z,12.31
2023-05-12T00:55:18.300Z,12.33
2023-05-12T00:56:18.279Z,12.33
2023-05-12T00:57:18.275Z,12.28
2023-05-12T00:58:18.260Z,12.30
2023-05-12T00:59:18.258Z,12.31
2023-05-12T01:00:18.633Z,12.30
2023-05-12T01:01:18.251Z,12.31
2023-05-12T01:02:18.240Z,12.33
2023-05-12T01:03:18.259Z,12.30
2023-05-12T01:04:18.214Z,12.30
2023-05-12T01:05:18.198Z,12.30
2023-05-12T01:06:18.167Z,12.31
2023-05-12T01:07:18.176Z,12.27
2023-05-12T01:08:18.158Z,12.30
2023-05-12T01:09:18.163Z,12.31
2023-05-12T01:10:18.611Z,12.31
2023-05-12T01:11:18.144Z,12.31
2023-05-12T01:12:18.122Z,12.30
2023-05-12T01:13:18.122Z,12.31
2023-05-12T01:14:18.078Z,12.30
2023-05-12T01:15:18.086Z,12.28
2023-05-12T01:16:18.060Z,12.28
2023-05-12T01:17:18.064Z,12.26
2023-05-12T01:18:18.093Z,12.28
2023-05-12T01:19:18.096Z,12.23
2023-05-12T01:20:18.408Z,12.27
2023-05-12T01:21:18.016Z,12.27
2023-05-12T01:22:18.013Z,12.23
2023-05-12T01:23:18.027Z,12.22
2023-05-12T01:24:17.987Z,12.26
2023-05-12T01:25:17.978Z,12.20
2023-05-12T01:26:17.988Z,12.22
2023-05-12T01:27:18.003Z,12.22
2023-05-12T01:28:17.930Z,12.22
2023-05-12T01:29:17.935Z,12.20
2023-05-12T01:30:18.088Z,12.23
2023-05-12T01:31:18.929Z,12.22
2023-05-12T01:32:17.895Z,12.20
2023-05-12T01:33:17.889Z,12.22
2023-05-12T01:34:17.863Z,12.18
2023-05-12T01:35:17.876Z,12.20
2023-05-12T01:36:17.872Z,12.19
2023-05-12T01:37:17.862Z,12.19
2023-05-12T01:38:17.831Z,12.22
2023-05-12T01:39:17.852Z,12.20
2023-05-12T01:40:17.918Z,12.20
2023-05-12T01:41:17.805Z,12.20
2023-05-12T01:42:17.828Z,12.20
2023-05-12T01:43:17.806Z,12.20
2023-05-12T01:44:17.766Z,12.20
2023-05-12T01:45:17.750Z,12.18
2023-05-12T01:46:17.738Z,12.19
2023-05-12T01:47:17.746Z,12.18
2023-05-12T01:48:17.716Z,12.18
2023-05-12T01:49:17.708Z,12.19
2023-05-12T01:50:17.838Z,12.20
2023-05-12T01:51:17.700Z,12.18
2023-05-12T01:52:17.694Z,12.16
2023-05-12T01:53:17.668Z,12.18
2023-05-12T01:54:17.650Z,12.16
2023-05-12T01:55:17.655Z,12.13
2023-05-12T01:56:17.648Z,12.15
2023-05-12T01:57:17.641Z,12.13
2023-05-12T01:58:17.601Z,12.13
2023-05-12T01:59:17.672Z,12.15
2023-05-12T02:00:17.723Z,12.09
2023-05-12T02:01:17.589Z,12.08
2023-05-12T02:02:17.612Z,12.06
2023-05-12T02:03:17.650Z,12.06
2023-05-12T02:04:17.561Z,12.06
2023-05-12T02:05:17.533Z,12.06
2023-05-12T02:06:17.519Z,12.04
2023-05-12T02:07:17.517Z,12.04
2023-05-12T02:08:17.516Z,12.03
2023-05-12T02:09:17.507Z,12.06
2023-05-12T02:10:17.709Z,12.03
2023-05-12T02:11:17.507Z,12.00
2023-05-12T02:12:17.469Z,12.01
2023-05-12T02:13:17.461Z,12.01
2023-05-12T02:14:17.431Z,12.01
2023-05-12T02:15:17.431Z,12.00
2023-05-12T02:16:17.452Z,11.98
2023-05-12T02:17:17.404Z,11.98
2023-05-12T02:18:17.391Z,11.95
2023-05-12T02:19:17.374Z,11.97
2023-05-12T02:20:17.561Z,11.97
2023-05-12T02:21:17.368Z,11.95
2023-05-12T02:22:17.353Z,11.95
2023-05-12T02:23:17.354Z,11.94
2023-05-12T02:24:17.368Z,11.95
2023-05-12T02:25:17.356Z,11.95
2023-05-12T02:26:17.340Z,11.93
2023-05-12T02:27:17.341Z,11.94
2023-05-12T02:28:17.283Z,11.93
2023-05-12T02:29:17.269Z,11.91
2023-05-12T02:30:17.325Z,11.90
2023-05-12T02:31:17.247Z,11.86
2023-05-12T02:32:17.274Z,11.86
2023-05-12T02:33:17.235Z,11.86
2023-05-12T02:34:17.220Z,11.83
2023-05-12T02:35:17.206Z,11.83
2023-05-12T02:36:17.213Z,11.82
2023-05-12T02:37:17.189Z,11.82
2023-05-12T02:38:17.207Z,11.79
2023-05-12T02:39:17.166Z,11.79
2023-05-12T02:40:17.352Z,11.78
2023-05-12T02:41:17.152Z,11.80
2023-05-12T02:42:17.137Z,11.76
2023-05-12T02:43:17.117Z,11.76
2023-05-12T02:44:17.108Z,11.78
2023-05-12T02:45:17.091Z,11.78
2023-05-12T02:46:17.123Z,11.79
2023-05-12T02:47:17.072Z,11.78
2023-05-12T02:48:17.078Z,11.78
2023-05-12T02:49:17.081Z,11.78
2023-05-12T02:50:17.096Z,11.78
2023-05-12T02:51:17.028Z,11.78
2023-05-12T02:52:17.065Z,11.75
2023-05-12T02:53:17.018Z,11.78
2023-05-12T02:54:17.029Z,11.76
2023-05-12T02:55:17.001Z,11.72
2023-05-12T02:56:17.086Z,11.75
2023-05-12T02:57:16.969Z,11.76
2023-05-12T02:58:16.972Z,11.75
2023-05-12T02:59:16.953Z,11.76
2023-05-12T03:00:17.022Z,11.73
2023-05-12T03:01:16.966Z,11.73
2023-05-12T03:02:16.992Z,11.73
2023-05-12T03:03:17.011Z,11.75
2023-05-12T03:04:16.923Z,11.75
2023-05-12T03:05:16.888Z,11.75
2023-05-12T03:06:16.893Z,11.75
2023-05-12T03:07:16.869Z,11.73
2023-05-12T03:08:16.875Z,11.73
2023-05-12T03:09:16.850Z,11.75
2023-05-12T03:10:16.950Z,11.76
2023-05-12T03:11:16.829Z,11.75
2023-05-12T03:12:16.869Z,11.75
2023-05-12T03:13:16.810Z,11.78
2023-05-12T03:14:16.801Z,11.78
2023-05-12T03:15:16.786Z,11.78
2023-05-12T03:16:18.834Z,11.78
2023-05-12T03:17:16.796Z,11.76
2023-05-12T03:18:16.764Z,11.76
2023-05-12T03:19:16.736Z,11.75
2023-05-12T03:20:16.746Z,11.75
2023-05-12T03:21:16.713Z,11.78
2023-05-12T03:22:16.711Z,11.73
2023-05-12T03:23:16.691Z,11.72
2023-05-12T03:24:16.696Z,11.73
2023-05-12T03:25:16.672Z,11.75
2023-05-12T03:26:16.677Z,11.79
2023-05-12T03:27:16.610Z,11.78
2023-05-12T03:28:16.748Z,11.79
2023-05-12T03:29:16.572Z,11.79
2023-05-12T03:30:16.602Z,11.79
2023-05-12T03:31:16.615Z,11.76
2023-05-12T03:32:16.546Z,11.78
2023-05-12T03:33:16.523Z,11.78
2023-05-12T03:34:16.536Z,11.80
2023-05-12T03:35:16.516Z,11.80
2023-05-12T03:36:16.500Z,11.80
2023-05-12T03:37:16.492Z,11.80
2023-05-12T03:38:16.492Z,11.82
2023-05-12T03:39:16.483Z,11.80
2023-05-12T03:40:16.462Z,11.80
2023-05-12T03:41:16.472Z,11.82
2023-05-12T03:42:16.463Z,11.79
2023-05-12T03:43:16.422Z,11.82
2023-05-12T03:44:16.458Z,11.82
2023-05-12T03:45:16.392Z,11.80
2023-05-12T03:46:16.437Z,11.83
2023-05-12T03:47:16.431Z,11.82
2023-05-12T03:48:16.424Z,11.80
2023-05-12T03:49:16.355Z,11.82
2023-05-12T03:50:16.376Z,11.85
2023-05-12T03:51:16.330Z,11.85
2023-05-12T03:52:16.346Z,11.88
2023-05-12T03:53:16.316Z,11.88
2023-05-12T03:54:16.338Z,11.91
2023-05-12T03:55:16.310Z,11.91
2023-05-12T03:56:16.310Z,11.97
2023-05-12T03:57:16.282Z,11.97
2023-05-12T03:58:16.265Z,11.97
2023-05-12T03:59:16.297Z,12.01
2023-05-12T04:00:16.261Z,12.01
2023-05-12T04:01:16.229Z,12.03
2023-05-12T04:02:16.248Z,12.04
2023-05-12T04:03:16.287Z,12.04
2023-05-12T04:04:16.228Z,12.06
2023-05-12T04:05:16.208Z,12.09
2023-05-12T04:06:16.188Z,12.09
2023-05-12T04:07:16.174Z,12.06
2023-05-12T04:08:16.168Z,12.03
2023-05-12T04:09:16.160Z,12.03
2023-05-12T04:10:16.170Z,12.01
2023-05-12T04:11:16.115Z,12.06
2023-05-12T04:12:16.122Z,12.00
2023-05-12T04:13:16.094Z,11.98
2023-05-12T04:14:16.106Z,12.03
2023-05-12T04:15:16.078Z,12.00
2023-05-12T04:16:16.129Z,11.97
2023-05-12T04:17:16.054Z,11.97
2023-05-12T04:18:16.056Z,11.95
2023-05-12T04:19:16.047Z,11.98
2023-05-12T04:20:16.039Z,12.00
2023-05-12T04:21:16.036Z,12.00
2023-05-12T04:22:16.008Z,12.00
2023-05-12T04:23:15.997Z,12.01
2023-05-12T04:24:16.000Z,12.00
2023-05-12T04:25:15.983Z,12.04
2023-05-12T04:26:15.966Z,12.04
2023-05-12T04:27:15.947Z,12.01
2023-05-12T04:28:15.953Z,12.00
2023-05-12T04:29:15.929Z,12.04
2023-05-12T04:30:15.921Z,12.06
2023-05-12T04:31:15.918Z,12.11
2023-05-12T04:32:16.195Z,12.11
2023-05-12T04:33:15.885Z,12.11
2023-05-12T04:34:15.883Z,12.12
2023-05-12T04:35:15.868Z,12.13
2023-05-12T04:36:15.870Z,12.15
2023-05-12T04:37:15.869Z,12.16
2023-05-12T04:38:15.867Z,12.15
2023-05-12T04:39:15.861Z,12.19
2023-05-12T04:40:15.823Z,12.20
2023-05-12T04:41:15.806Z,12.22
2023-05-12T04:42:15.792Z,12.23
2023-05-12T04:44:15.785Z,12.30
2023-05-12T04:45:15.750Z,12.34
2023-05-12T04:46:15.837Z,12.36
2023-05-12T04:47:15.738Z,12.40
2023-05-12T04:48:15.759Z,12.40
2023-05-12T04:49:15.723Z,12.41
2023-05-12T04:50:15.785Z,12.46
2023-05-12T04:51:15.700Z,12.49
2023-05-12T04:52:15.697Z,12.49
2023-05-12T04:53:15.685Z,12.53
2023-05-12T04:54:15.687Z,12.52
2023-05-12T04:55:15.682Z,12.53
2023-05-12T04:56:15.655Z,12.51
2023-05-12T04:57:15.670Z,12.49
2023-05-12T04:58:15.678Z,12.52
2023-05-12T04:59:15.610Z,12.51
2023-05-12T05:00:15.630Z,12.56
2023-05-12T05:01:15.640Z,12.56
2023-05-12T05:02:15.609Z,12.64
2023-05-12T05:03:15.656Z,12.70
2023-05-12T05:04:15.591Z,12.67
2023-05-12T05:05:15.541Z,12.68
2023-05-12T05:06:15.544Z,12.70
2023-05-12T05:07:15.523Z,12.70
2023-05-12T05:08:15.516Z,12.70
2023-05-12T05:09:15.513Z,12.71
2023-05-12T05:10:15.507Z,12.70
2023-05-12T05:11:15.497Z,12.67
2023-05-12T05:12:15.490Z,12.67
2023-05-12T05:13:15.462Z,12.65
2023-05-12T05:14:15.460Z,12.64
2023-05-12T05:15:15.452Z,12.67
2023-05-12T05:16:15.476Z,12.70
2023-05-12T05:17:15.420Z,12.72
2023-05-12T05:18:15.443Z,12.75
2023-05-12T05:19:22.870Z,12.72
2023-05-12T05:20:16.578Z,12.75
2023-05-12T05:21:15.400Z,12.77
2023-05-12T05:22:15.366Z,12.79
2023-05-12T05:23:15.347Z,12.85
2023-05-12T05:24:15.343Z,12.85
2023-05-12T05:25:15.337Z,12.86
2023-05-12T05:26:15.338Z,12.89
2023-05-12T05:27:15.317Z,12.92
2023-05-12T05:28:15.297Z,12.95
2023-05-12T05:29:15.293Z,12.97
2023-05-12T05:30:15.285Z,13.01
2023-05-12T05:31:15.287Z,13.08
2023-05-12T05:32:15.257Z,13.12
2023-05-12T05:33:15.241Z,13.17
2023-05-12T05:34:15.290Z,13.23
2023-05-12T05:35:15.226Z,13.28
2023-05-12T05:36:15.252Z,13.37
2023-05-12T05:37:15.200Z,13.33
2023-05-12T05:38:15.197Z,13.41
2023-05-12T05:39:15.183Z,13.38
2023-05-12T05:40:15.196Z,13.41
2023-05-12T05:41:15.152Z,13.47
2023-05-12T05:42:15.147Z,13.43
2023-05-12T05:43:15.134Z,13.44
2023-05-12T05:44:15.130Z,13.45
2023-05-12T05:45:15.108Z,13.50
2023-05-12T05:46:15.132Z,13.51
2023-05-12T05:47:15.149Z,13.54
2023-05-12T05:48:15.083Z,13.61
2023-05-12T05:49:15.076Z,13.56
2023-05-12T05:50:15.058Z,13.66
2023-05-12T05:51:15.050Z,13.72
2023-05-12T05:52:15.083Z,13.78
2023-05-12T05:53:15.356Z,13.81
2023-05-12T05:54:15.019Z,13.86
2023-05-12T05:55:15.001Z,14.01
2023-05-12T05:56:14.999Z,14.12
2023-05-12T05:57:14.982Z,14.18
2023-05-12T05:58:14.968Z,14.33
2023-05-12T05:59:14.962Z,14.47
2023-05-12T06:00:14.968Z,14.40
2023-05-12T06:01:14.942Z,14.57
2023-05-12T06:02:14.971Z,14.54
2023-05-12T06:03:15.017Z,14.51
2023-05-12T06:04:14.927Z,14.65
2023-05-12T06:05:14.885Z,14.79
2023-05-12T06:06:14.890Z,14.98
2023-05-12T06:07:14.885Z,15.19
2023-05-12T06:08:14.894Z,15.30
2023-05-12T06:09:14.846Z,15.45
2023-05-12T06:10:14.835Z,15.53
2023-05-12T06:11:15.957Z,15.65
2023-05-12T06:12:14.822Z,15.69
2023-05-12T06:13:14.801Z,15.78
2023-05-12T06:14:14.795Z,15.72
2023-05-12T06:15:14.783Z,15.64
2023-05-12T06:16:14.818Z,15.54
2023-05-12T06:17:14.759Z,15.64
2023-05-12T06:18:14.760Z,15.57
2023-05-12T06:19:14.753Z,15.50
2023-05-12T06:20:14.733Z,15.45
2023-05-12T06:21:14.717Z,15.40
2023-05-12T06:22:14.718Z,15.27
2023-05-12T06:23:14.702Z,15.13
2023-05-12T06:24:14.740Z,15.02
2023-05-12T06:25:14.670Z,14.88
2023-05-12T06:26:14.670Z,14.90
2023-05-12T06:27:14.662Z,14.83
2023-05-12T06:28:14.647Z,14.85
2023-05-12T06:29:14.634Z,14.85
2023-05-12T06:30:16.133Z,14.95
2023-05-12T06:31:14.620Z,14.90
2023-05-12T06:32:14.655Z,15.02
2023-05-12T06:33:14.601Z,15.05
2023-05-12T06:34:14.577Z,15.13
2023-05-12T06:35:14.586Z,15.10
2023-05-12T06:36:14.566Z,15.06
2023-05-12T06:37:14.553Z,15.00
2023-05-12T06:38:14.544Z,14.95
2023-05-12T06:39:14.541Z,14.91
2023-05-12T06:40:14.541Z,14.93
2023-05-12T06:41:14.524Z,14.98
2023-05-12T06:42:14.490Z,15.06
2023-05-12T06:43:14.489Z,15.08
2023-05-12T06:44:14.478Z,15.09
2023-05-12T06:45:14.469Z,15.18
2023-05-12T06:46:14.509Z,15.16
2023-05-12T06:47:14.448Z,15.19
2023-05-12T06:48:14.434Z,15.13
2023-05-12T06:49:14.434Z,15.15
2023-05-12T06:50:14.406Z,15.16
2023-05-12T06:51:14.416Z,15.12
2023-05-12T06:52:14.387Z,15.12
2023-05-12T06:53:14.392Z,15.10
2023-05-12T06:54:14.362Z,15.06
2023-05-12T06:55:14.368Z,15.08
2023-05-12T06:56:14.365Z,15.12
2023-05-12T06:57:14.342Z,15.27
2023-05-12T06:58:14.323Z,15.30
2023-05-12T06:59:14.356Z,15.30
2023-05-12T07:00:14.304Z,15.37
2023-05-12T07:01:14.326Z,15.45
2023-05-12T07:02:14.294Z,15.53
2023-05-12T07:03:14.567Z,15.49
2023-05-12T07:04:14.351Z,15.31
2023-05-12T07:05:14.286Z,15.20
2023-05-12T07:06:14.300Z,14.91
2023-05-12T07:07:14.246Z,14.91
2023-05-12T07:08:14.228Z,14.97
2023-05-12T07:09:14.210Z,14.98
2023-05-12T07:10:14.215Z,15.01
2023-05-12T07:11:14.188Z,15.05
2023-05-12T07:12:14.255Z,15.09
2023-05-12T07:13:14.179Z,15.15
2023-05-12T07:14:14.182Z,15.19
2023-05-12T07:15:14.157Z,15.27
2023-05-12T07:16:14.171Z,15.37
2023-05-12T07:17:14.125Z,15.45
2023-05-12T07:18:14.111Z,15.54
2023-05-12T07:19:14.178Z,15.60
2023-05-12T07:20:14.113Z,15.62
2023-05-12T07:21:14.093Z,15.54
2023-05-12T07:22:14.066Z,15.12
2023-05-12T07:23:14.067Z,14.98
2023-05-12T07:24:14.058Z,15.01
2023-05-12T07:25:14.083Z,15.09
2023-05-12T07:26:14.014Z,15.18
2023-05-12T07:27:14.024Z,15.31
2023-05-12T07:28:14.077Z,15.45
2023-05-12T07:29:14.206Z,15.59
2023-05-12T07:30:14.001Z,15.54
2023-05-12T07:31:14.054Z,15.50
2023-05-12T07:32:13.965Z,15.40
2023-05-12T07:33:13.992Z,15.37
2023-05-12T07:34:13.930Z,15.67
2023-05-12T07:35:13.934Z,15.92
2023-05-12T07:36:13.922Z,16.14
2023-05-12T07:37:13.903Z,16.24
2023-05-12T07:38:13.898Z,16.34
2023-05-12T07:39:13.885Z,16.65
2023-05-12T07:40:13.869Z,16.91
2023-05-12T07:41:13.872Z,17.00
2023-05-12T07:42:13.847Z,16.94
2023-05-12T07:43:13.853Z,17.12
2023-05-12T07:44:13.854Z,17.26
2023-05-12T07:45:13.823Z,17.46
2023-05-12T07:46:13.809Z,17.67
2023-05-12T07:47:13.821Z,17.81
2023-05-12T07:48:13.842Z,17.94
2023-05-12T07:49:13.781Z,18.10
2023-05-12T07:50:13.762Z,17.98
2023-05-12T07:51:13.760Z,17.71
2023-05-12T07:52:13.741Z,17.80
2023-05-12T07:53:13.732Z,17.61
2023-05-12T07:54:13.719Z,17.65
2023-05-12T07:55:13.713Z,17.65
2023-05-12T07:56:13.699Z,17.56
2023-05-12T07:57:13.690Z,17.70
2023-05-12T07:58:13.679Z,17.65
2023-05-12T07:59:13.672Z,17.62
2023-05-12T08:00:13.671Z,17.40
2023-05-12T08:01:13.651Z,17.37
2023-05-12T08:02:13.656Z,17.80
2023-05-12T08:03:13.737Z,18.11
2023-05-12T08:04:13.722Z,18.37
2023-05-12T08:05:13.610Z,18.78
2023-05-12T08:06:13.594Z,19.28
2023-05-12T08:07:13.594Z,19.72
2023-05-12T08:08:13.564Z,20.13
2023-05-12T08:09:13.568Z,20.50
2023-05-12T08:10:13.551Z,20.50
2023-05-12T08:11:13.546Z,20.78
2023-05-12T08:12:13.541Z,21.03
2023-05-12T08:13:13.518Z,21.17
2023-05-12T08:14:13.509Z,20.73
2023-05-12T08:15:13.557Z,20.53
2023-05-12T08:16:13.587Z,20.41
2023-05-12T08:17:13.612Z,19.70
2023-05-12T08:18:13.492Z,19.21
2023-05-12T08:19:13.528Z,18.80
2023-05-12T08:20:13.442Z,18.62
2023-05-12T08:21:13.454Z,18.72
2023-05-12T08:22:13.413Z,18.69
2023-05-12T08:23:13.409Z,18.52
2023-05-12T08:24:13.399Z,18.54
2023-05-12T08:25:13.392Z,18.72
2023-05-12T08:26:13.376Z,18.91
2023-05-12T08:27:13.368Z,19.20
2023-05-12T08:28:13.351Z,19.46
2023-05-12T08:29:13.343Z,19.68
2023-05-12T08:30:13.329Z,19.86
2023-05-12T08:31:13.424Z,20.05
2023-05-12T08:32:13.343Z,20.17
2023-05-12T08:33:13.305Z,20.32
2023-05-12T08:34:13.282Z,20.14
2023-05-12T08:35:13.379Z,20.13
2023-05-12T08:36:13.270Z,19.70
2023-05-12T08:37:13.258Z,19.64
2023-05-12T08:38:13.245Z,19.55
2023-05-12T08:39:13.239Z,19.55
2023-05-12T08:40:13.221Z,19.43
2023-05-12T08:41:13.232Z,19.36
2023-05-12T08:42:13.207Z,19.18
2023-05-12T08:43:13.206Z,18.62
2023-05-12T08:44:13.180Z,18.44
2023-05-12T08:45:13.250Z,18.29
2023-05-12T08:46:13.258Z,18.22
2023-05-12T08:47:13.153Z,18.11
2023-05-12T08:48:13.204Z,18.09
2023-05-12T08:49:13.132Z,18.09
2023-05-12T08:50:13.113Z,17.98
2023-05-12T08:51:13.232Z,17.69
2023-05-12T08:52:13.088Z,17.61
2023-05-12T08:53:13.087Z,17.49
2023-05-12T08:54:13.069Z,17.25
2023-05-12T08:55:13.095Z,17.21
2023-05-12T08:57:13.053Z,17.07
2023-05-12T08:58:13.025Z,17.08
2023-05-12T08:59:13.020Z,17.07
2023-05-12T09:00:13.009Z,17.22
2023-05-12T09:01:13.008Z,17.34
2023-05-12T09:02:13.011Z,17.46
2023-05-12T09:03:13.029Z,17.58
2023-05-12T09:04:13.055Z,17.56
2023-05-12T09:05:12.974Z,17.73
2023-05-12T09:06:12.958Z,17.88
2023-05-12T09:07:12.944Z,17.99
2023-05-12T09:08:12.908Z,18.19
2023-05-12T09:09:12.912Z,18.42
2023-05-12T09:10:22.490Z,18.72
2023-05-12T09:11:12.898Z,18.84
2023-05-12T09:12:13.607Z,18.82
2023-05-12T09:13:12.871Z,19.00
2023-05-12T09:14:12.851Z,18.95
2023-05-12T09:15:12.937Z,18.80
2023-05-12T09:16:12.854Z,18.70
2023-05-12T09:17:12.824Z,18.78
2023-05-12T09:18:12.832Z,18.98
2023-05-12T09:19:12.933Z,18.98
2023-05-12T09:20:23.828Z,19.05
2023-05-12T09:21:13.821Z,19.05
2023-05-12T09:22:12.765Z,18.95
2023-05-12T09:23:12.764Z,18.88
2023-05-12T09:24:12.755Z,18.22
2023-05-12T09:25:14.590Z,17.94
2023-05-12T09:26:12.726Z,17.86
2023-05-12T09:27:12.740Z,17.78
2023-05-12T09:28:12.714Z,17.59
2023-05-12T09:29:20.828Z,17.54
2023-05-12T09:30:12.684Z,17.38
2023-05-12T09:31:14.691Z,17.30
2023-05-12T09:32:12.721Z,17.16
2023-05-12T09:33:12.736Z,17.06
2023-05-12T09:34:12.633Z,16.98
2023-05-12T09:35:12.631Z,16.67
2023-05-12T09:36:12.648Z,16.45
2023-05-12T09:37:15.047Z,16.40
2023-05-12T09:38:12.596Z,16.29
2023-05-12T09:39:12.586Z,16.08
2023-05-12T09:40:12.577Z,16.05
2023-05-12T09:41:12.569Z,16.00
2023-05-12T09:42:12.562Z,15.92
2023-05-12T09:43:15.354Z,15.83
2023-05-12T09:44:12.546Z,15.82
2023-05-12T09:45:12.529Z,15.72
2023-05-12T09:46:12.575Z,15.46
2023-05-12T09:47:12.499Z,15.38
2023-05-12T09:48:12.496Z,15.34
2023-05-12T09:49:12.483Z,15.56
2023-05-12T09:50:12.464Z,15.78
2023-05-12T09:51:12.473Z,16.24
2023-05-12T09:52:12.473Z,16.48
2023-05-12T09:53:12.438Z,16.69
2023-05-12T09:54:12.427Z,16.97
2023-05-12T09:55:12.416Z,17.21
2023-05-12T09:56:12.393Z,17.37
2023-05-12T09:57:12.397Z,17.43
2023-05-12T09:58:12.389Z,17.65
2023-05-12T09:59:12.373Z,18.11
2023-05-12T10:00:28.634Z,18.65
2023-05-12T10:01:22.600Z,19.05
2023-05-12T10:02:12.358Z,19.46
2023-05-12T10:03:12.407Z,19.53
2023-05-12T10:04:12.323Z,19.76
2023-05-12T10:05:12.377Z,19.76
2023-05-12T10:06:12.294Z,19.92
2023-05-12T10:07:12.284Z,20.23
2023-05-12T10:08:12.401Z,20.46
2023-05-12T10:09:12.265Z,20.43
2023-05-12T10:10:12.244Z,20.33
2023-05-12T10:11:12.233Z,20.51
2023-05-12T10:12:12.221Z,20.57
2023-05-12T10:13:12.227Z,20.81
2023-05-12T10:14:12.405Z,21.03
2023-05-12T10:15:12.199Z,21.00
2023-05-12T10:16:12.247Z,21.12
2023-05-12T10:17:12.225Z,20.91
2023-05-12T10:18:12.181Z,20.41
2023-05-12T10:19:12.197Z,20.93
2023-05-12T10:20:12.134Z,21.28
2023-05-12T10:21:12.175Z,21.29
2023-05-12T10:22:12.114Z,21.11
2023-05-12T10:23:12.122Z,21.49
2023-05-12T10:24:12.388Z,21.71
2023-05-12T10:25:12.088Z,21.34
2023-05-12T10:26:12.070Z,21.59
2023-05-12T10:27:12.096Z,21.62
2023-05-12T10:28:12.050Z,21.75
2023-05-12T10:29:12.048Z,22.16
2023-05-12T10:30:12.027Z,22.65
2023-05-12T10:31:12.065Z,23.94
2023-05-12T10:32:12.007Z,24.31
2023-05-12T10:33:12.009Z,24.32
2023-05-12T10:34:11.986Z,24.12
2023-05-12T10:35:11.978Z,23.56
2023-05-12T10:36:11.971Z,23.25
2023-05-12T10:37:11.977Z,22.56
2023-05-12T10:38:11.949Z,21.87
2023-05-12T10:39:11.945Z,21.40
2023-05-12T10:40:11.997Z,21.06
2023-05-12T10:41:11.922Z,21.06
2023-05-12T10:42:11.906Z,20.96
2023-05-12T10:43:11.896Z,20.66
2023-05-12T10:44:11.889Z,19.99
2023-05-12T10:45:11.876Z,19.88
2023-05-12T10:46:11.891Z,19.86
2023-05-12T10:47:13.111Z,20.05
2023-05-12T10:48:11.922Z,20.01
2023-05-12T10:49:11.837Z,20.16
2023-05-12T10:50:11.822Z,20.53
2023-05-12T10:51:11.807Z,20.84
2023-05-12T10:52:11.808Z,21.09
2023-05-12T10:53:11.790Z,21.19
2023-05-12T10:54:11.790Z,21.08
2023-05-12T10:55:11.877Z,21.19
2023-05-12T10:56:11.990Z,21.40
2023-05-12T10:57:13.913Z,21.37
2023-05-12T10:58:12.413Z,21.44
2023-05-12T10:59:12.047Z,21.35
2023-05-12T11:00:12.312Z,21.34
2023-05-12T11:01:12.094Z,21.21
2023-05-12T11:02:12.460Z,20.94
2023-05-12T11:03:11.984Z,20.75
2023-05-12T11:04:12.457Z,20.42
2023-05-12T11:05:17.367Z,20.02
2023-05-12T11:06:12.867Z,19.47
2023-05-12T11:07:12.150Z,19.18
2023-05-12T11:08:11.941Z,18.69
2023-05-12T11:09:12.895Z,18.35
2023-05-12T11:10:11.776Z,18.22
2023-05-12T11:11:11.609Z,18.04
2023-05-12T11:12:11.651Z,17.91
2023-05-12T11:13:11.572Z,17.85
2023-05-12T11:14:11.575Z,17.80
2023-05-12T11:15:11.549Z,17.78
2023-05-12T11:16:11.617Z,17.78
2023-05-12T11:17:11.531Z,17.74
2023-05-12T11:18:11.579Z,17.78
2023-05-12T11:19:11.637Z,17.81
2023-05-12T11:20:11.521Z,17.88
2023-05-12T11:21:11.483Z,17.78
2023-05-12T11:22:11.484Z,17.81
2023-05-12T11:23:11.491Z,17.92
2023-05-12T11:24:12.072Z,18.09
2023-05-12T11:25:11.535Z,18.09
2023-05-12T11:26:11.455Z,18.17
2023-05-12T11:27:11.430Z,18.36
2023-05-12T11:28:11.471Z,18.54
2023-05-12T11:29:11.403Z,18.75
2023-05-12T11:30:11.401Z,18.85
2023-05-12T11:31:11.384Z,18.65
2023-05-12T11:32:11.436Z,18.50
2023-05-12T11:33:11.391Z,18.50
2023-05-12T11:34:13.072Z,18.39
2023-05-12T11:35:11.334Z,18.67
2023-05-12T11:36:11.330Z,18.94
2023-05-12T11:37:11.317Z,19.30
2023-05-12T11:38:11.309Z,19.40
2023-05-12T11:39:11.290Z,19.28
2023-05-12T11:40:11.288Z,19.28
2023-05-12T11:41:11.265Z,19.40
2023-05-12T11:42:13.581Z,19.42
2023-05-12T11:43:11.251Z,19.39
2023-05-12T11:44:11.279Z,19.18
2023-05-12T11:45:11.224Z,18.87
2023-05-12T11:46:11.266Z,18.65
2023-05-12T11:47:11.204Z,18.62
2023-05-12T11:48:11.336Z,18.58
2023-05-12T11:49:11.190Z,18.50
2023-05-12T11:50:11.176Z,18.47
2023-05-12T11:51:11.167Z,18.42
2023-05-12T11:52:11.162Z,18.52
2023-05-12T11:53:11.145Z,18.41
2023-05-12T11:54:11.130Z,18.48
2023-05-12T11:55:11.113Z,18.65
2023-05-12T11:56:11.110Z,18.85
2023-05-12T11:57:11.101Z,19.05
2023-05-12T11:58:11.090Z,19.35
2023-05-12T11:59:11.077Z,19.73
2023-05-12T12:00:11.108Z,20.08
2023-05-12T12:01:11.053Z,20.24
2023-05-12T12:02:11.060Z,20.60
2023-05-12T12:03:11.177Z,20.83
2023-05-12T12:04:11.050Z,20.94
2023-05-12T12:05:11.013Z,21.22
2023-05-12T12:06:11.005Z,21.58
2023-05-12T12:07:10.986Z,22.02
2023-05-12T12:08:10.985Z,22.02
2023-05-12T12:09:10.970Z,22.06
2023-05-12T12:10:11.047Z,22.44
2023-05-12T12:11:10.953Z,22.75
2023-05-12T12:12:10.944Z,22.68
2023-05-12T12:13:10.933Z,22.67
2023-05-12T12:14:10.924Z,22.36
2023-05-12T12:15:10.907Z,22.39
2023-05-12T12:16:12.859Z,22.62
2023-05-12T12:17:10.886Z,22.75
2023-05-12T12:18:10.915Z,22.98
2023-05-12T12:19:10.969Z,23.53
2023-05-12T12:20:10.864Z,23.89
2023-05-12T12:21:10.836Z,24.64
2023-05-12T12:22:10.840Z,25.24
2023-05-12T12:23:10.821Z,25.79
2023-05-12T12:24:10.841Z,26.36
2023-05-12T12:25:10.799Z,26.12
2023-05-12T12:26:10.798Z,25.37
2023-05-12T12:27:10.776Z,24.47
2023-05-12T12:28:10.771Z,23.92
2023-05-12T12:29:10.765Z,23.16
2023-05-12T12:30:10.830Z,22.45
2023-05-12T12:31:10.788Z,22.24
2023-05-12T12:32:10.864Z,21.86
2023-05-12T12:33:10.767Z,21.79
2023-05-12T12:34:10.709Z,21.74
2023-05-12T12:35:10.687Z,21.58
2023-05-12T12:36:10.687Z,21.24
2023-05-12T12:37:10.678Z,20.91
2023-05-12T12:38:10.665Z,20.61
2023-05-12T12:39:10.646Z,20.41
2023-05-12T12:40:10.681Z,20.24
2023-05-12T12:41:10.624Z,19.76
2023-05-12T12:42:10.616Z,19.42
2023-05-12T12:43:10.622Z,18.99
2023-05-12T12:44:10.612Z,18.62
2023-05-12T12:45:10.578Z,18.35
2023-05-12T12:46:10.582Z,18.20
2023-05-12T12:47:10.659Z,18.09
2023-05-12T12:48:10.718Z,18.09
2023-05-12T12:49:10.539Z,18.14
2023-05-12T12:50:10.606Z,18.35
2023-05-12T12:51:10.520Z,18.42
2023-05-12T12:52:10.518Z,18.63
2023-05-12T12:53:10.498Z,18.82
2023-05-12T12:54:10.502Z,19.07